Mia Cara — 6YSK8 — position and weather

sailwx.info

Track history (hours):
 
Tides and Currents Weather Stations Pressure Air Temp Water Temp Dewpoint Dewpoint Depression Visibility Wind Speed Wind Dir Waves Ship Positions

Mia Cara

Last reported at 2017-Sep-25 17:47 UTC. Time now 2017-Oct-17 17:13 UTC.
Position N 44°14' W 069°00'.
Warning: this ship's position is 21 days out of date.

Length 39 m; draft 4 m.

Type: Sailing vessel. MMSI: 339433000.

Date/timePositionNaut miles runAvg speedWind from/ knotsBaromVisibWave heightAir tempDewpointWater temp
2017-Sep-25 17:47N 44°14' W 069°00'411.4
2017-Sep-25 17:28N 44°11' W 069°02'1 2.5
2017-Sep-25 16:57N 44°10' W 069°04'0 0.0
2017-Sep-25 16:21N 44°10' W 069°04'0 0.0
2017-Sep-25 15:57N 44°10' W 069°04'0 0.0
2017-Sep-25 15:30N 44°10' W 069°04'0 0.0
2017-Sep-25 14:54N 44°10' W 069°04'0 0.0
2017-Sep-25 13:51N 44°10' W 069°04'0 0.0
2017-Sep-25 12:40N 44°10' W 069°04'0 0.0
2017-Sep-25 12:27N 44°10' W 069°04'0 0.0
2017-Sep-25 11:45N 44°10' W 069°04'0 0.0
2017-Sep-25 11:27N 44°10' W 069°04'0 0.0
2017-Sep-25 10:54N 44°10' W 069°04'0 0.0
2017-Sep-25 10:30N 44°10' W 069°04'0 0.0
2017-Sep-25 09:48N 44°10' W 069°04'0 0.0
2017-Sep-25 09:21N 44°10' W 069°04'0 0.0
2017-Sep-25 08:15N 44°10' W 069°04'0 0.0
2017-Sep-25 07:36N 44°10' W 069°04'0 0.0
2017-Sep-25 07:27N 44°10' W 069°04'0 0.0
2017-Sep-25 06:57N 44°10' W 069°04'0 0.0
2017-Sep-25 06:30N 44°10' W 069°04'0 0.0
2017-Sep-25 05:36N 44°10' W 069°04'0 0.1
2017-Sep-25 05:30N 44°10' W 069°04'0 0.0
2017-Sep-25 05:00N 44°10' W 069°04'0 0.0
2017-Sep-25 04:12N 44°10' W 069°04'0 0.0
2017-Sep-25 03:36N 44°10' W 069°04'0 0.1
2017-Sep-25 03:24N 44°10' W 069°04'0 0.0
2017-Sep-25 02:57N 44°10' W 069°04'0 0.0
2017-Sep-25 02:30N 44°10' W 069°04'0 0.0
2017-Sep-25 01:57N 44°10' W 069°04'0 0.0
2017-Sep-25 01:27N 44°10' W 069°04'0 0.0
2017-Sep-25 01:00N 44°10' W 069°04'0 0.0
2017-Sep-25 00:27N 44°10' W 069°04'0 0.0
2017-Sep-25 00:00N 44°10' W 069°04'0 0.0
2017-Sep-24 22:54N 44°10' W 069°04'0 0.0
2017-Sep-24 22:30N 44°10' W 069°04'1 1.0
2017-Sep-24 21:51N 44°10' W 069°04'3 6.9
2017-Sep-24 21:29N 44°09' W 069°01'3 4.9
2017-Sep-24 20:57N 44°12' W 069°01'  
2017-Sep-18 13:35N 44°14' W 068°60'211.2
2017-Sep-18 13:26N 44°12' W 069°00'3 7.1
2017-Sep-18 12:58N 44°10' W 069°04'0 0.5
2017-Sep-18 12:28N 44°10' W 069°04'0 0.0
2017-Sep-18 12:00N 44°10' W 069°04'0 0.0
2017-Sep-18 11:28N 44°10' W 069°04'0 0.0
2017-Sep-18 10:49N 44°10' W 069°04'0 0.0
2017-Sep-18 10:30N 44°10' W 069°04'0 0.0
2017-Sep-18 10:00N 44°10' W 069°04'0 0.0
2017-Sep-18 09:29N 44°10' W 069°04'2 3.8
2017-Sep-18 08:59N 44°09' W 069°03'6 9.1
2017-Sep-18 08:18N 44°03' W 069°01'3 9.1
2017-Sep-18 08:00N 43°60' W 069°01'4 8.1
2017-Sep-18 07:29N 43°57' W 069°04'6 9.7
2017-Sep-18 06:54N 43°54' W 069°11'173 5.3
2017-Sep-16 22:12N 41°29' W 071°19'0 0.0
2017-Sep-16 21:48N 41°29' W 071°19'0 0.0
2017-Sep-16 19:15N 41°29' W 071°19'0 0.0
2017-Sep-16 18:12N 41°29' W 071°19'0 0.0
2017-Sep-16 18:00N 41°29' W 071°19'0 0.0
2017-Sep-16 17:30N 41°29' W 071°19'0 0.0
2017-Sep-16 17:00N 41°29' W 071°19'0 0.0
2017-Sep-16 16:30N 41°29' W 071°19'  
Track history (hours):
 
Tides and Currents Weather Stations Pressure Air Temp Water Temp Dewpoint Dewpoint Depression Visibility Wind Speed Wind Dir Waves Ship Positions

Mia Cara

Last reported at 2017-Sep-25 17:47 UTC. Time now 2017-Oct-17 17:13 UTC.
Position N 44°14' W 069°00'.
Warning: this ship's position is 21 days out of date.

Length 39 m; draft 4 m.

Type: Sailing vessel. MMSI: 339433000.

Date/timePositionNaut miles runAvg speedWind from/ knotsBaromVisibWave heightAir tempDewpointWater temp
2017-Sep-25 17:47N 44°14' W 069°00'411.4
2017-Sep-25 17:28N 44°11' W 069°02'1 2.5
2017-Sep-25 16:57N 44°10' W 069°04'0 0.0
2017-Sep-25 16:21N 44°10' W 069°04'0 0.0
2017-Sep-25 15:57N 44°10' W 069°04'0 0.0
2017-Sep-25 15:30N 44°10' W 069°04'0 0.0
2017-Sep-25 14:54N 44°10' W 069°04'0 0.0
2017-Sep-25 13:51N 44°10' W 069°04'0 0.0
2017-Sep-25 12:40N 44°10' W 069°04'0 0.0
2017-Sep-25 12:27N 44°10' W 069°04'0 0.0
2017-Sep-25 11:45N 44°10' W 069°04'0 0.0
2017-Sep-25 11:27N 44°10' W 069°04'0 0.0
2017-Sep-25 10:54N 44°10' W 069°04'0 0.0
2017-Sep-25 10:30N 44°10' W 069°04'0 0.0
2017-Sep-25 09:48N 44°10' W 069°04'0 0.0
2017-Sep-25 09:21N 44°10' W 069°04'0 0.0
2017-Sep-25 08:15N 44°10' W 069°04'0 0.0
2017-Sep-25 07:36N 44°10' W 069°04'0 0.0
2017-Sep-25 07:27N 44°10' W 069°04'0 0.0
2017-Sep-25 06:57N 44°10' W 069°04'0 0.0
2017-Sep-25 06:30N 44°10' W 069°04'0 0.0
2017-Sep-25 05:36N 44°10' W 069°04'0 0.1
2017-Sep-25 05:30N 44°10' W 069°04'0 0.0
2017-Sep-25 05:00N 44°10' W 069°04'0 0.0
2017-Sep-25 04:12N 44°10' W 069°04'0 0.0
2017-Sep-25 03:36N 44°10' W 069°04'0 0.1
2017-Sep-25 03:24N 44°10' W 069°04'0 0.0
2017-Sep-25 02:57N 44°10' W 069°04'0 0.0
2017-Sep-25 02:30N 44°10' W 069°04'0 0.0
2017-Sep-25 01:57N 44°10' W 069°04'0 0.0
2017-Sep-25 01:27N 44°10' W 069°04'0 0.0
2017-Sep-25 01:00N 44°10' W 069°04'0 0.0
2017-Sep-25 00:27N 44°10' W 069°04'0 0.0
2017-Sep-25 00:00N 44°10' W 069°04'0 0.0
2017-Sep-24 22:54N 44°10' W 069°04'0 0.0
2017-Sep-24 22:30N 44°10' W 069°04'1 1.0
2017-Sep-24 21:51N 44°10' W 069°04'3 6.9
2017-Sep-24 21:29N 44°09' W 069°01'3 4.9
2017-Sep-24 20:57N 44°12' W 069°01'  
2017-Sep-18 13:35N 44°14' W 068°60'211.2
2017-Sep-18 13:26N 44°12' W 069°00'3 7.1
2017-Sep-18 12:58N 44°10' W 069°04'0 0.5
2017-Sep-18 12:28N 44°10' W 069°04'0 0.0
2017-Sep-18 12:00N 44°10' W 069°04'0 0.0
2017-Sep-18 11:28N 44°10' W 069°04'0 0.0
2017-Sep-18 10:49N 44°10' W 069°04'0 0.0
2017-Sep-18 10:30N 44°10' W 069°04'0 0.0
2017-Sep-18 10:00N 44°10' W 069°04'0 0.0
2017-Sep-18 09:29N 44°10' W 069°04'2 3.8
2017-Sep-18 08:59N 44°09' W 069°03'6 9.1
2017-Sep-18 08:18N 44°03' W 069°01'3 9.1
2017-Sep-18 08:00N 43°60' W 069°01'4 8.1
2017-Sep-18 07:29N 43°57' W 069°04'6 9.7
2017-Sep-18 06:54N 43°54' W 069°11'173 5.3
2017-Sep-16 22:12N 41°29' W 071°19'0 0.0
2017-Sep-16 21:48N 41°29' W 071°19'0 0.0
2017-Sep-16 19:15N 41°29' W 071°19'0 0.0
2017-Sep-16 18:12N 41°29' W 071°19'0 0.0
2017-Sep-16 18:00N 41°29' W 071°19'0 0.0
2017-Sep-16 17:30N 41°29' W 071°19'0 0.0
2017-Sep-16 17:00N 41°29' W 071°19'0 0.0
2017-Sep-16 16:30N 41°29' W 071°19'  

Dump ship's entire track history